Jhang Weather



Jhang's Current Weather

Temprature 33.33o clear sky

clear sky

Rain: 0 %

Min Temprature33.33o
Max Temprature33.33o
Humidity34
Wind Speed0.89 m/h
Sun Rise05:14:09
Sun Set18:57:16
Current Time: 08-May-2021 15:20:27
Lat/Lon: 33.6748, 72.6963




Jhang's Geo Location



Jhang's Weather Forecast

Time Overall Temp Min Temp Max Temp Humidity Wind Speed Rain
08-May-2021 (Sat)
17:00:00 clear sky 33.570 33.570 34.050 29 2.86 m/h 0 %
20:00:00 light rain 30.040 28.400 30.040 33 3.46 m/h 32 %
23:00:00 broken clouds 25.200 25.200 25.200 43 2.3 m/h 0 %
09-May-2021 (Sun)
02:00:00 broken clouds 24.240 24.240 24.240 44 1.35 m/h 0 %
05:00:00 light rain 22.860 22.860 22.860 48 2 m/h 15 %
08:00:00 scattered clouds 28.130 28.130 28.130 34 2.18 m/h 0 %
11:00:00 scattered clouds 33.540 33.540 33.540 24 1.43 m/h 0 %
14:00:00 clear sky 36.140 36.140 36.140 19 3.21 m/h 0 %
17:00:00 clear sky 35.640 35.640 35.640 19 3.3 m/h 0 %
20:00:00 clear sky 30.560 30.560 30.560 25 1.31 m/h 0 %
23:00:00 few clouds 26.190 26.190 26.190 39 5.66 m/h 0 %
10-May-2021 (Mon)
02:00:00 scattered clouds 24.470 24.470 24.470 44 1.66 m/h 0 %
05:00:00 light rain 23.200 23.200 23.200 49 2.05 m/h 18 %
08:00:00 light rain 27.620 27.620 27.620 38 2.16 m/h 60 %
11:00:00 overcast clouds 32.820 32.820 32.820 26 0.34 m/h 0 %
14:00:00 scattered clouds 35.780 35.780 35.780 21 2.2 m/h 0 %
17:00:00 few clouds 35.950 35.950 35.950 20 2.83 m/h 0 %
20:00:00 scattered clouds 31.340 31.340 31.340 27 3.33 m/h 0 %
23:00:00 scattered clouds 28.700 28.700 28.700 32 1.99 m/h 0 %
11-May-2021 (Tue)
02:00:00 broken clouds 26.380 26.380 26.380 39 2.11 m/h 0 %
05:00:00 light rain 25.300 25.300 25.300 42 2.08 m/h 13 %
08:00:00 light rain 29.560 29.560 29.560 32 2.36 m/h 28 %
11:00:00 few clouds 34.780 34.780 34.780 22 0.8 m/h 0 %
14:00:00 few clouds 38.150 38.150 38.150 16 3.76 m/h 0 %
17:00:00 few clouds 38.290 38.290 38.290 14 0.96 m/h 0 %
20:00:00 broken clouds 27.740 27.740 27.740 37 8.86 m/h 0 %
23:00:00 light rain 22.320 22.320 22.320 61 9.9 m/h 84 %
12-May-2021 (Wed)
02:00:00 light rain 22.740 22.740 22.740 59 3.65 m/h 160 %
05:00:00 light rain 20.920 20.920 20.920 72 3.46 m/h 30 %
08:00:00 light rain 24.690 24.690 24.690 52 3.56 m/h 92 %
11:00:00 light rain 29.730 29.730 29.730 35 0.18 m/h 46 %
14:00:00 broken clouds 33.250 33.250 33.250 27 1.76 m/h 0 %
17:00:00 light rain 30.110 30.110 30.110 34 4.85 m/h 48 %
20:00:00 moderate rain 24.300 24.300 24.300 54 6.98 m/h 311 %
23:00:00 light rain 23.100 23.100 23.100 62 2.15 m/h 28 %
13-May-2021 (Thu)
02:00:00 light rain 20.570 20.570 20.570 69 1.15 m/h 161 %
05:00:00 moderate rain 19.970 19.970 19.970 73 1.36 m/h 422 %
08:00:00 light rain 23.490 23.490 23.490 55 1.9 m/h 125 %
11:00:00 scattered clouds 27.990 27.990 27.990 39 2.56 m/h 0 %
14:00:00 broken clouds 30.760 30.760 30.760 29 3.77 m/h 0 %

Famous Cities (60)